Time;durP1;ratioP1;P1;durP2;ratioP2;P2;SDS_P1;SDS_P2;PMS_P1;PMS_P2;Temp;Humidity;BMP_temperature;BMP_pressure;BME280_temperature;BME280_humidity;BME280_pressure;Samples;Min_cycle;Max_cycle;Signal;HPM_P1;HPM_P2
2021/12/13 03:04:20;;;;;;;;;;;;;;;4.26;89.04;99063.59;4896165;29;19958;-71
2021/12/13 03:06:50;;;;;;;;;;;;;;;4.24;90.63;99061.19;4897986;29;19931;-71
2021/12/13 03:09:20;;;;;;;;;;;;;;;4.27;90.57;99063.28;4897696;29;19932;-69
2021/12/13 03:11:50;;;;;;;;;;;;;;;4.28;91.44;99064.09;4897756;29;19958;-69
2021/12/13 03:14:22;;;;;;;;;;;;;;;4.28;91.84;99069.63;4898081;29;19935;-69
2021/12/13 03:16:57;;;;;;;;;;;;;;;4.27;90.05;99068.81;4897330;29;20285;-70
2021/12/13 03:19:24;;;;;;;;;;;;;;;4.31;87.79;99075.28;4897781;29;19935;-72
2021/12/13 03:22:13;;;;;;;;;;;;;;;4.36;87.99;99072.31;4898051;29;20340;-71
2021/12/13 03:24:41;;;;;;;;;;;;;;;4.34;87.90;99068.28;4899845;29;19935;-71
2021/12/13 03:27:27;;;;;;;;;;;;;;;4.38;85.62;99071.97;4898336;29;19938;-71
2021/12/13 03:29:58;;;;;;;;;;;;;;;4.42;82.00;99076.53;4896429;29;19932;-72
2021/12/13 03:32:32;;;;;;;;;;;;;;;4.48;79.29;99074.34;4901427;29;19932;-71
2021/12/13 03:35:05;;;;;;;;;;;;;;;4.47;80.87;99079.09;4901013;29;19932;-71
2021/12/13 03:37:33;;;;;;;;;;;;;;;4.47;85.75;99079.09;4900909;29;19938;-71
2021/12/13 03:40:03;;;;;;;;;;;;;;;4.47;85.65;99078.28;4869168;29;19962;-71
2021/12/13 03:42:49;;;;;;;;;;;;;;;4.47;86.94;99072.72;4900946;29;19931;-71
2021/12/13 03:45:19;;;;;;;;;;;;;;;4.43;86.16;99072.59;4885239;29;19932;-72
2021/12/13 03:47:50;;;;;;;;;;;;;;;4.47;83.78;99083.81;4899695;29;19931;-72
2021/12/13 03:50:20;;;;;;;;;;;;;;;4.52;80.04;99092.69;4900527;29;19948;-72
2021/12/13 03:52:49;;;;;;;;;;;;;;;4.61;78.60;99090.69;4899230;29;19966;-71
2021/12/13 03:55:19;;;;;;;;;;;;;;;4.58;80.76;99094.13;4900988;29;19951;-71
2021/12/13 03:57:48;;;;;;;;;;;;;;;4.68;74.93;99100.38;4897536;29;19939;-71
2021/12/13 04:00:19;;;;;;;;;;;;;;;4.71;71.91;99099.72;4896761;29;19940;-72
2021/12/13 04:02:47;;;;;;;;;;;;;;;4.72;74.39;99099.38;4907001;29;19942;-72
2021/12/13 04:05:17;;;;;;;;;;;;;;;4.72;77.35;99093.81;4919361;29;19962;-71
2021/12/13 04:07:48;;;;;;;;;;;;;;;4.74;76.01;99094.31;4918953;29;19935;-71
2021/12/13 04:10:20;;;;;;;;;;;;;;;4.75;76.35;99090.38;4914983;29;19939;-71
2021/12/13 04:12:51;;;;;;;;;;;;;;;4.75;76.53;99093.16;4918961;29;20236;-71
2021/12/13 04:15:27;;;;;;;;;;;;;;;4.74;74.79;99091.56;4919771;29;19927;-71
2021/12/13 04:18:14;;;;;;;;;;;;;;;4.76;77.21;99093.97;4915218;29;20224;-71
2021/12/13 04:20:44;;;;;;;;;;;;;;;4.70;77.47;99103.63;4919251;29;19942;-71
2021/12/13 04:23:14;;;;;;;;;;;;;;;4.71;77.78;99106.06;4918462;29;19931;-71
2021/12/13 04:25:44;;;;;;;;;;;;;;;4.76;75.14;99099.50;4918822;29;19931;-70
2021/12/13 04:28:13;;;;;;;;;;;;;;;4.79;74.69;99101.59;4918641;29;20358;-71
2021/12/13 04:30:43;;;;;;;;;;;;;;;4.86;73.22;99096.31;4918890;29;19931;-71
2021/12/13 04:33:12;;;;;;;;;;;;;;;4.92;73.29;99092.16;4919269;29;19935;-71
2021/12/13 04:35:40;;;;;;;;;;;;;;;4.94;76.44;99098.22;4918855;29;19935;-71
2021/12/13 04:38:08;;;;;;;;;;;;;;;4.94;77.30;99098.22;4918611;29;20320;-71
2021/12/13 04:40:37;;;;;;;;;;;;;;;4.94;77.48;99099.00;4917756;29;19931;-71
2021/12/13 04:43:13;;;;;;;;;;;;;;;4.95;76.03;99099.81;4919655;29;20224;-71
2021/12/13 04:45:45;;;;;;;;;;;;;;;4.82;80.84;99101.72;4919053;29;19931;-71
2021/12/13 04:48:16;;;;;;;;;;;;;;;4.78;84.29;99100.78;4918087;29;19931;-71
2021/12/13 04:50:52;;;;;;;;;;;;;;;4.77;82.19;99098.38;4919230;29;19939;-71
2021/12/13 04:53:28;;;;;;;;;;;;;;;4.78;82.76;99099.97;4918632;29;19950;-71
2021/12/13 04:55:58;;;;;;;;;;;;;;;4.78;83.57;99105.50;4918786;29;19931;-71
2021/12/13 04:58:25;;;;;;;;;;;;;;;4.81;82.92;99115.94;4917970;29;19959;-71
2021/12/13 05:00:56;;;;;;;;;;;;;;;4.76;82.87;99110.59;4918728;29;19938;-71
2021/12/13 05:03:28;;;;;;;;;;;;;;;4.71;84.43;99108.84;4910164;29;19932;-71
2021/12/13 05:06:05;;;;;;;;;;;;;;;4.65;82.23;99110.19;4903101;29;19958;-71
2021/12/13 05:08:33;;;;;;;;;;;;;;;4.59;85.26;99100.47;4904182;29;19931;-71
2021/12/13 05:11:05;;;;;;;;;;;;;;;4.50;85.88;99103.31;4911460;29;19939;-71
2021/12/13 05:13:36;;;;;;;;;;;;;;;4.48;85.19;99111.16;4900451;29;19931;-71
2021/12/13 05:16:09;;;;;;;;;;;;;;;4.45;88.01;99111.81;4906675;29;19937;-71
2021/12/13 05:18:40;;;;;;;;;;;;;;;4.37;89.73;99115.47;4902313;29;20362;-71
2021/12/13 05:21:10;;;;;;;;;;;;;;;4.30;90.02;99115.22;4899790;29;19932;-72
2021/12/13 05:23:50;;;;;;;;;;;;;;;4.32;88.88;99123.19;4901012;29;19935;-72
2021/12/13 05:26:29;;;;;;;;;;;;;;;4.24;89.08;99119.31;4898418;29;19935;-72
2021/12/13 05:28:57;;;;;;;;;;;;;;;4.24;91.12;99124.84;4898115;29;19942;-72
2021/12/13 05:31:26;;;;;;;;;;;;;;;4.21;89.15;99121.94;4909792;29;19931;-72
2021/12/13 05:33:59;;;;;;;;;;;;;;;4.17;91.46;99116.28;4914675;29;19938;-71
2021/12/13 05:36:28;;;;;;;;;;;;;;;4.09;94.70;99114.38;4918229;29;19931;-71
2021/12/13 05:39:17;;;;;;;;;;;;;;;4.14;92.94;99119.72;4918620;29;19942;-71
2021/12/13 05:41:54;;;;;;;;;;;;;;;4.19;87.56;99115.94;4905842;29;19935;-71
2021/12/13 05:44:24;;;;;;;;;;;;;;;4.15;89.24;99117.75;4898664;29;19943;-71
2021/12/13 05:46:52;;;;;;;;;;;;;;;4.16;87.85;99120.19;4898304;29;20233;-71
2021/12/13 05:49:22;;;;;;;;;;;;;;;4.23;85.59;99114.13;4897865;29;19939;-71
2021/12/13 05:51:52;;;;;;;;;;;;;;;4.30;84.93;99114.41;4898215;29;19931;-71
2021/12/13 05:54:25;;;;;;;;;;;;;;;4.30;83.53;99106.91;4898670;29;20325;-71
2021/12/13 05:56:56;;;;;;;;;;;;;;;4.31;84.43;99108.50;4899289;29;19939;-71
2021/12/13 05:59:23;;;;;;;;;;;;;;;4.31;85.15;99114.06;4898565;29;19928;-71
2021/12/13 06:02:14;;;;;;;;;;;;;;;4.35;82.32;99109.44;5790436;24;19935;-71
2021/12/13 06:05:06;;;;;;;;;;;;;;;4.37;85.15;99112.72;4937309;29;19934;-71
2021/12/13 06:07:35;;;;;;;;;;;;;;;4.44;86.46;99103.84;4936341;29;20327;-71
2021/12/13 06:10:05;;;;;;;;;;;;;;;4.47;84.15;99109.53;4943181;29;19926;-71
2021/12/13 06:12:46;;;;;;;;;;;;;;;4.53;82.37;99116.47;4944341;29;19931;-71
2021/12/13 06:15:16;;;;;;;;;;;;;;;4.55;86.63;99116.94;4938830;29;20239;-71
2021/12/13 06:17:46;;;;;;;;;;;;;;;4.57;87.60;99103.56;4938719;29;20299;-71
2021/12/13 06:20:15;;;;;;;;;;;;;;;4.61;84.44;99110.06;4938040;29;19933;-71
2021/12/13 06:22:43;;;;;;;;;;;;;;;4.70;82.06;99112.75;4938789;29;19950;-72
2021/12/13 06:25:18;;;;;;;;;;;;;;;4.77;80.38;99106.69;4937298;29;19926;-72
2021/12/13 06:27:52;;;;;;;;;;;;;;;4.82;78.68;99107.25;4935380;29;20373;-74
2021/12/13 06:30:23;;;;;;;;;;;;;;;4.88;79.59;99099.56;4938822;29;20236;-74
2021/12/13 06:32:50;;;;;;;;;;;;;;;4.91;80.80;99109.97;4938337;29;19931;-73
2021/12/13 06:35:38;;;;;;;;;;;;;;;4.93;82.69;99107.66;4935684;29;19934;-74
2021/12/13 06:38:20;;;;;;;;;;;;;;;4.94;80.48;99107.31;4931176;29;19928;-73
2021/12/13 06:40:49;;;;;;;;;;;;;;;4.96;79.48;99109.75;4920214;29;19933;-74
2021/12/13 06:43:32;;;;;;;;;;;;;;;5.02;79.89;99111.16;4935242;29;20235;-73
2021/12/13 06:46:01;;;;;;;;;;;;;;;5.07;79.34;99110.94;4938478;29;19932;-74
2021/12/13 06:48:35;;;;;;;;;;;;;;;5.07;78.35;99108.97;4936560;29;19954;-71
2021/12/13 06:51:03;;;;;;;;;;;;;;;5.07;78.18;99113.69;4936033;29;20348;-72
2021/12/13 06:53:31;;;;;;;;;;;;;;;5.09;76.88;99116.94;4935747;29;19930;-71
2021/12/13 06:56:17;;;;;;;;;;;;;;;5.13;76.22;99115.13;4938031;29;19927;-71
2021/12/13 06:58:48;;;;;;;;;;;;;;;5.15;77.21;99121.94;4939383;29;20339;-71
2021/12/13 07:01:15;;;;;;;;;;;;;;;5.20;77.83;99126.47;4941801;29;20347;-71
2021/12/13 07:03:52;;;;;;;;;;;;;;;5.22;79.60;99124.97;4942377;29;19927;-71
2021/12/13 07:06:20;;;;;;;;;;;;;;;5.29;80.21;99132.72;4941848;29;20236;-71
2021/12/13 07:08:59;;;;;;;;;;;;;;;5.35;80.43;99133.31;4932942;29;20236;-72
2021/12/13 07:11:37;;;;;;;;;;;;;;;5.39;80.51;99126.72;4906776;29;20225;-72
2021/12/13 07:14:06;;;;;;;;;;;;;;;5.46;79.47;99132.53;4923464;29;19927;-71
2021/12/13 07:16:35;;;;;;;;;;;;;;;5.56;78.00;99140.41;4923651;29;20228;-71
2021/12/13 07:19:11;;;;;;;;;;;;;;;5.66;76.99;99136.34;4941736;29;19934;-72
2021/12/13 07:21:43;;;;;;;;;;;;;;;5.80;75.84;99134.88;4939312;29;20216;-72
2021/12/13 07:24:13;;;;;;;;;;;;;;;6.28;76.55;99136.88;4940227;29;19937;-72
2021/12/13 07:26:41;;;;;;;;;;;;;;;7.00;72.13;99135.03;4942340;29;19937;-72
2021/12/13 07:29:23;;;;;;;;;;;;;;;7.76;67.57;99141.09;4939663;29;19927;-72
2021/12/13 07:32:09;;;;;;;;;;;;;;;8.77;62.92;99151.47;4928345;29;19937;-72
2021/12/13 07:34:46;;;;;;;;;;;;;;;9.96;57.96;99141.03;4922772;29;19934;-72
2021/12/13 07:37:13;;;;;;;;;;;;;;;10.93;51.68;99146.53;4937282;29;19926;-72
2021/12/13 07:39:43;;;;;;;;;;;;;;;12.08;47.27;99145.44;4921969;29;19931;-72
2021/12/13 07:42:12;;;;;;;;;;;;;;;12.94;43.92;99151.25;4938639;29;19938;-72
2021/12/13 07:44:43;;;;;;;;;;;;;;;13.24;44.30;99156.66;4939370;29;19927;-72
2021/12/13 07:47:22;;;;;;;;;;;;;;;12.76;44.71;99155.97;4940579;29;19993;-72
2021/12/13 07:49:52;;;;;;;;;;;;;;;12.53;45.17;99159.03;4940643;29;19926;-72
2021/12/13 07:52:25;;;;;;;;;;;;;;;14.14;42.40;99165.72;4936773;29;20224;-72
2021/12/13 07:54:53;;;;;;;;;;;;;;;16.32;35.18;99177.50;4924089;29;19975;-72
2021/12/13 07:57:28;;;;;;;;;;;;;;;18.33;30.46;99178.00;4940316;29;19953;-72
2021/12/13 07:59:58;;;;;;;;;;;;;;;18.94;28.59;99179.41;4942669;29;20240;-72
2021/12/13 08:02:27;;;;;;;;;;;;;;;20.45;27.75;99185.16;4945311;29;20264;-72
2021/12/13 08:04:55;;;;;;;;;;;;;;;22.05;25.69;99189.72;4937678;29;19947;-72
2021/12/13 08:07:30;;;;;;;;;;;;;;;23.69;23.91;99194.38;4939804;29;19948;-72
2021/12/13 08:10:03;;;;;;;;;;;;;;;24.45;22.07;99194.69;4936429;29;20354;-73
2021/12/13 08:12:35;;;;;;;;;;;;;;;24.37;22.57;99191.31;4921201;29;20264;-73
2021/12/13 08:15:08;;;;;;;;;;;;;;;23.78;22.65;99195.22;4933833;29;20250;-73
2021/12/13 08:18:05;;;;;;;;;;;;;;;23.95;23.61;99184.38;4923330;29;19953;-73
2021/12/13 08:20:36;;;;;;;;;;;;;;;22.56;24.97;99190.53;4928010;29;19961;-73
2021/12/13 08:23:04;;;;;;;;;;;;;;;21.69;25.77;99182.66;4938777;29;19951;-73
2021/12/13 08:25:34;;;;;;;;;;;;;;;21.01;26.95;99185.75;4939407;29;20323;-73
2021/12/13 08:28:05;;;;;;;;;;;;;;;20.30;26.24;99173.34;4933160;29;19930;-73
2021/12/13 08:30:34;;;;;;;;;;;;;;;19.94;27.54;99176.19;4938482;29;20082;-73
2021/12/13 08:33:05;;;;;;;;;;;;;;;19.42;28.92;99176.06;4940207;29;20308;-73
2021/12/13 08:36:04;;;;;;;;;;;;;;;19.31;29.15;99183.16;4939692;29;19931;-73
2021/12/13 08:38:40;;;;;;;;;;;;;;;18.83;30.14;99175.16;4899800;29;19938;-73
2021/12/13 08:41:08;;;;;;;;;;;;;;;18.76;30.87;99181.75;4921570;29;19927;-72
2021/12/13 08:43:38;;;;;;;;;;;;;;;17.73;31.68;99179.66;4904231;29;20306;-73
2021/12/13 08:46:06;;;;;;;;;;;;;;;16.66;32.70;99178.44;4921035;29;19927;-73
2021/12/13 08:48:42;;;;;;;;;;;;;;;15.57;36.00;99182.00;4920748;29;20341;-72
2021/12/13 08:51:15;;;;;;;;;;;;;;;14.24;40.00;99187.41;4920343;29;20335;-72
2021/12/13 08:53:47;;;;;;;;;;;;;;;13.11;41.16;99189.06;4920687;29;19931;-72
2021/12/13 08:56:23;;;;;;;;;;;;;;;12.47;43.65;99185.81;4920959;29;19927;-72
2021/12/13 08:58:52;;;;;;;;;;;;;;;11.83;45.70;99190.03;4920878;29;19938;-72
2021/12/13 09:01:19;;;;;;;;;;;;;;;10.99;50.30;99189.81;4920705;29;20411;-72
2021/12/13 09:03:49;;;;;;;;;;;;;;;10.76;50.07;99189.06;4920838;29;19935;-72
2021/12/13 09:06:16;;;;;;;;;;;;;;;10.59;54.22;99195.19;4920999;29;19927;-72
2021/12/13 09:08:47;;;;;;;;;;;;;;;10.38;54.87;99186.47;4935867;29;20232;-72
2021/12/13 09:11:18;;;;;;;;;;;;;;;10.13;53.39;99188.06;4939640;29;20316;-72
2021/12/13 09:13:57;;;;;;;;;;;;;;;10.17;52.76;99195.31;4928405;29;20312;-73
2021/12/13 09:16:27;;;;;;;;;;;;;;;10.31;51.98;99200.34;4935611;29;19934;-72
2021/12/13 09:19:06;;;;;;;;;;;;;;;10.40;51.42;99200.88;4938698;29;19951;-72
2021/12/13 09:21:43;;;;;;;;;;;;;;;10.50;52.67;99203.06;4920250;29;19927;-72
2021/12/13 09:24:11;;;;;;;;;;;;;;;10.61;51.00;99209.63;4904090;29;19927;-72
2021/12/13 09:26:41;;;;;;;;;;;;;;;10.74;51.31;99213.81;4920749;29;19927;-72
2021/12/13 09:29:09;;;;;;;;;;;;;;;10.85;51.40;99211.19;4920597;29;20313;-72
2021/12/13 09:31:38;;;;;;;;;;;;;;;10.94;51.40;99217.31;4922800;29;19953;-72
2021/12/13 09:34:09;;;;;;;;;;;;;;;11.01;52.04;99218.22;4938740;29;19935;-72
2021/12/13 09:36:38;;;;;;;;;;;;;;;11.05;52.40;99213.47;4935764;29;19926;-72
2021/12/13 09:39:12;;;;;;;;;;;;;;;11.09;53.43;99211.53;4938649;29;20107;-72
2021/12/13 09:41:59;;;;;;;;;;;;;;;11.02;57.33;99214.25;4938206;29;19933;-72
2021/12/13 09:44:31;;;;;;;;;;;;;;;11.12;56.07;99210.78;4903382;29;19934;-72
2021/12/13 09:46:58;;;;;;;;;;;;;;;11.25;53.87;99204.94;4928452;29;19926;-72
2021/12/13 09:49:25;;;;;;;;;;;;;;;11.38;52.33;99217.50;4939398;29;19934;-72
2021/12/13 09:51:56;;;;;;;;;;;;;;;11.52;52.20;99207.28;4938664;29;19934;-72
2021/12/13 09:54:26;;;;;;;;;;;;;;;11.66;51.64;99215.06;4937660;29;19926;-72
2021/12/13 09:56:59;;;;;;;;;;;;;;;11.65;53.41;99217.03;4937856;29;20219;-72
2021/12/13 09:59:29;;;;;;;;;;;;;;;11.66;54.27;99206.66;4937908;29;20324;-72
2021/12/13 10:01:58;;;;;;;;;;;;;;;11.79;53.44;99202.41;4939128;29;19927;-72
2021/12/13 10:04:26;;;;;;;;;;;;;;;11.95;51.65;99202.19;4939473;29;19926;-72
2021/12/13 10:06:56;;;;;;;;;;;;;;;12.10;50.44;99201.13;4944894;29;19934;-72
2021/12/13 10:09:26;;;;;;;;;;;;;;;12.21;51.05;99196.41;4938442;29;20014;-72
2021/12/13 10:12:15;;;;;;;;;;;;;;;12.29;51.87;99192.50;4938396;29;20231;-72
2021/12/13 10:14:45;;;;;;;;;;;;;;;12.44;50.66;99194.22;4925324;29;19931;-72
2021/12/13 10:17:16;;;;;;;;;;;;;;;12.57;49.38;99195.50;4920239;29;19931;-72
2021/12/13 10:19:46;;;;;;;;;;;;;;;12.61;48.88;99187.13;4927049;29;20343;-72
2021/12/13 10:22:15;;;;;;;;;;;;;;;12.62;47.31;99188.75;4937729;29;19927;-72
2021/12/13 10:24:46;;;;;;;;;;;;;;;12.55;46.92;99186.69;4938481;29;19957;-72
2021/12/13 10:27:14;;;;;;;;;;;;;;;12.54;48.01;99188.69;4938387;29;20247;-72
2021/12/13 10:29:44;;;;;;;;;;;;;;;12.54;49.87;99183.06;4938129;29;20092;-72
2021/12/13 10:32:18;;;;;;;;;;;;;;;12.37;53.92;99174.53;4937402;29;19934;-72
2021/12/13 10:34:48;;;;;;;;;;;;;;;12.26;53.40;99182.03;4937313;29;20232;-72
2021/12/13 10:37:25;;;;;;;;;;;;;;;12.35;50.88;99177.72;4938168;29;19937;-72
2021/12/13 10:39:55;;;;;;;;;;;;;;;12.44;47.66;99168.97;4938598;29;19931;-72
2021/12/13 10:42:26;;;;;;;;;;;;;;;12.41;48.39;99180.97;4938972;29;20219;-72
2021/12/13 10:44:54;;;;;;;;;;;;;;;12.34;46.90;99167.69;4936862;29;19942;-72
2021/12/13 10:47:31;;;;;;;;;;;;;;;12.46;47.50;99173.00;4937539;29;19930;-72
2021/12/13 10:50:01;;;;;;;;;;;;;;;12.40;47.78;99170.94;4938128;29;19996;-73
2021/12/13 10:52:31;;;;;;;;;;;;;;;12.47;48.13;99168.22;4937555;29;19934;-72
2021/12/13 10:55:01;;;;;;;;;;;;;;;12.44;49.27;99174.59;4937387;29;20339;-72
2021/12/13 10:57:35;;;;;;;;;;;;;;;12.31;50.24;99171.28;4937296;29;19934;-72
2021/12/13 11:00:08;;;;;;;;;;;;;;;12.27;51.09;99166.84;4937869;29;19931;-72
2021/12/13 11:02:36;;;;;;;;;;;;;;;12.14;50.93;99168.31;4932236;29;19949;-72
2021/12/13 11:05:13;;;;;;;;;;;;;;;12.10;51.56;99164.69;4938562;29;19934;-72
2021/12/13 11:07:42;;;;;;;;;;;;;;;11.98;49.90;99162.97;4937900;29;19934;-72
2021/12/13 11:10:12;;;;;;;;;;;;;;;11.97;50.92;99157.75;4937652;29;19957;-72
2021/12/13 11:12:44;;;;;;;;;;;;;;;11.93;51.14;99154.13;4938082;29;19934;-72
2021/12/13 11:15:14;;;;;;;;;;;;;;;11.89;49.74;99154.06;4937278;29;19941;-72
2021/12/13 11:17:42;;;;;;;;;;;;;;;11.92;49.14;99161.72;4937571;29;19934;-72
2021/12/13 11:20:33;;;;;;;;;;;;;;;11.96;50.06;99162.53;4936343;29;19927;-72
2021/12/13 11:23:01;;;;;;;;;;;;;;;11.39;59.05;99154.72;4932687;29;19938;-72
2021/12/13 11:25:31;;;;;;;;;;;;;;;11.50;60.36;99147.22;4937992;29;19931;-71
2021/12/13 11:27:59;;;;;;;;;;;;;;;11.55;60.47;99149.69;4934066;29;19926;-71
2021/12/13 11:30:29;;;;;;;;;;;;;;;11.50;59.42;99148.03;4937878;29;19946;-71
2021/12/13 11:32:56;;;;;;;;;;;;;;;11.67;58.65;99144.63;4937661;29;19926;-71
2021/12/13 11:35:42;;;;;;;;;;;;;;;11.53;61.22;99140.88;4937459;29;19935;-71
2021/12/13 11:38:10;;;;;;;;;;;;;;;11.00;65.83;99137.44;4937407;29;19927;-71
2021/12/13 11:40:56;;;;;;;;;;;;;;;10.91;68.68;99140.53;4937614;29;19927;-71
2021/12/13 11:43:34;;;;;;;;;;;;;;;10.98;71.39;99137.81;4938196;29;19926;-71
2021/12/13 11:46:20;;;;;;;;;;;;;;;10.84;71.29;99136.81;4936325;29;19933;-72
2021/12/13 11:48:56;;;;;;;;;;;;;;;10.91;71.46;99129.31;4940903;29;19927;-72
2021/12/13 11:51:39;;;;;;;;;;;;;;;10.96;71.94;99126.19;4940478;29;19935;-72
2021/12/13 11:54:07;;;;;;;;;;;;;;;10.57;76.12;99127.66;4941197;29;19946;-71
2021/12/13 11:56:53;;;;;;;;;;;;;;;10.83;74.95;99129.63;4940350;29;19931;-71
2021/12/13 11:59:39;;;;;;;;;;;;;;;10.84;76.14;99123.63;4941378;29;19927;-71
2021/12/13 12:02:29;;;;;;;;;;;;;;;10.75;76.50;99123.13;4941132;29;19927;-71
2021/12/13 12:05:18;;;;;;;;;;;;;;;10.87;76.26;99124.88;4923058;29;19934;-72
2021/12/13 12:07:46;;;;;;;;;;;;;;;10.79;76.23;99123.16;4940763;29;20193;-71
2021/12/13 12:10:31;;;;;;;;;;;;;;;10.67;76.74;99121.41;4941407;29;20232;-71
2021/12/13 12:13:07;;;;;;;;;;;;;;;10.67;76.38;99120.59;4940591;29;19927;-71
2021/12/13 12:15:39;;;;;;;;;;;;;;;10.70;74.68;99115.06;4941098;29;19930;-71
2021/12/13 12:18:09;;;;;;;;;;;;;;;10.79;70.29;99123.16;4939441;29;19934;-71
2021/12/13 12:20:42;;;;;;;;;;;;;;;10.71;68.70;99116.66;4932771;29;20244;-71
2021/12/13 12:23:24;;;;;;;;;;;;;;;10.47;63.41;99114.31;4940146;29;19927;-71
2021/12/13 12:25:54;;;;;;;;;;;;;;;10.45;62.09;99116.69;4940590;29;19926;-71
2021/12/13 12:28:22;;;;;;;;;;;;;;;10.38;60.91;99116.59;4941047;29;20304;-71
2021/12/13 12:30:51;;;;;;;;;;;;;;;10.45;60.14;99106.31;4940065;29;19931;-71
2021/12/13 12:33:23;;;;;;;;;;;;;;;10.46;65.25;99105.16;4938760;29;19927;-71
2021/12/13 12:35:51;;;;;;;;;;;;;;;10.53;66.32;99107.22;4939570;29;19942;-71
2021/12/13 12:38:22;;;;;;;;;;;;;;;10.68;66.30;99103.44;4940693;29;19927;-71
2021/12/13 12:41:08;;;;;;;;;;;;;;;10.72;66.72;99109.88;4940405;29;19927;-74
2021/12/13 12:43:37;;;;;;;;;;;;;;;10.60;69.39;99095.31;4939133;29;19938;-73
2021/12/13 12:46:08;;;;;;;;;;;;;;;10.68;69.68;99099.84;4939022;29;19938;-71
2021/12/13 12:48:40;;;;;;;;;;;;;;;10.70;71.63;99091.88;4927896;29;19931;-71
2021/12/13 12:51:09;;;;;;;;;;;;;;;10.74;69.05;99095.50;4923906;29;19942;-71
2021/12/13 12:53:37;;;;;;;;;;;;;;;10.78;66.54;99100.00;4924540;29;19942;-71
2021/12/13 12:56:04;;;;;;;;;;;;;;;10.83;67.29;99093.25;4922791;29;20624;-71
2021/12/13 12:58:46;;;;;;;;;;;;;;;10.85;64.14;99086.09;4922974;29;19942;-71
2021/12/13 13:01:19;;;;;;;;;;;;;;;10.82;62.03;99088.84;4925023;29;19927;-71
2021/12/13 13:03:47;;;;;;;;;;;;;;;10.74;63.04;99089.91;4923448;29;19953;-71
2021/12/13 13:06:23;;;;;;;;;;;;;;;10.70;64.09;99089.06;4924922;29;19931;-71
2021/12/13 13:08:54;;;;;;;;;;;;;;;10.67;63.48;99085.03;4923188;29;20552;-71
2021/12/13 13:11:27;;;;;;;;;;;;;;;10.52;62.00;99091.63;4924689;29;19938;-71
2021/12/13 13:13:57;;;;;;;;;;;;;;;10.42;60.64;99079.09;4924271;29;19935;-71
2021/12/13 13:16:29;;;;;;;;;;;;;;;10.48;61.70;99079.59;4924237;29;19942;-71
2021/12/13 13:18:56;;;;;;;;;;;;;;;10.39;63.03;99088.25;4918815;29;19926;-71
2021/12/13 13:21:24;;;;;;;;;;;;;;;10.36;68.16;99077.84;4922431;29;20056;-71
2021/12/13 13:23:54;;;;;;;;;;;;;;;10.11;76.43;99082.22;4923939;29;19951;-71
2021/12/13 13:26:22;;;;;;;;;;;;;;;9.96;79.95;99071.19;4924117;29;19942;-71
2021/12/13 13:28:52;;;;;;;;;;;;;;;9.83;81.85;99074.19;4926117;29;19927;-72
2021/12/13 13:31:23;;;;;;;;;;;;;;;9.67;83.47;99067.94;4922829;29;19927;-71
2021/12/13 13:33:53;;;;;;;;;;;;;;;9.60;84.55;99065.03;4923407;29;19962;-71
2021/12/13 13:36:32;;;;;;;;;;;;;;;9.50;85.53;99068.44;4923563;29;20329;-71
2021/12/13 13:39:18;;;;;;;;;;;;;;;9.56;84.44;99072.50;4923916;29;20197;-71
2021/12/13 13:41:48;;;;;;;;;;;;;;;9.49;83.91;99077.97;4924336;29;19942;-71
2021/12/13 13:44:17;;;;;;;;;;;;;;;9.38;82.92;99070.59;4923885;29;19942;-71
2021/12/13 13:46:46;;;;;;;;;;;;;;;9.26;82.33;99068.78;4924651;29;19935;-71
2021/12/13 13:49:19;;;;;;;;;;;;;;;9.26;79.77;99074.38;4924873;29;20914;-71
2021/12/13 13:51:47;;;;;;;;;;;;;;;9.23;74.80;99075.09;4919767;29;19931;-72
2021/12/13 13:54:15;;;;;;;;;;;;;;;9.17;71.89;99074.59;4919916;29;19933;-72
2021/12/13 13:56:44;;;;;;;;;;;;;;;9.11;69.40;99086.44;4924440;29;20232;-71
2021/12/13 13:59:16;;;;;;;;;;;;;;;9.14;69.46;99080.13;4924035;29;19930;-71
2021/12/13 14:02:01;;;;;;;;;;;;;;;9.07;73.28;99085.56;4923625;29;19954;-71
2021/12/13 14:04:36;;;;;;;;;;;;;;;9.08;71.15;99084.38;4923000;29;19935;-72
2021/12/13 14:07:27;;;;;;;;;;;;;;;9.02;71.33;99083.06;4923653;29;19958;-71
2021/12/13 14:09:58;;;;;;;;;;;;;;;8.94;75.41;99075.75;4922551;29;19930;-71
2021/12/13 14:12:44;;;;;;;;;;;;;;;8.78;77.20;99086.19;4922762;29;20237;-71
2021/12/13 14:15:29;;;;;;;;;;;;;;;8.78;77.30;99084.16;4910953;29;20792;-71
2021/12/13 14:17:59;;;;;;;;;;;;;;;8.68;91.84;99079.19;4922545;29;20236;-71
2021/12/13 14:20:34;;;;;;;;;;;;;;;8.57;97.55;99076.19;4923010;29;19947;-71
2021/12/13 14:23:12;;;;;;;;;;;;;;;8.47;100.00;99085.13;4923169;29;19942;-71
2021/12/13 14:25:41;;;;;;;;;;;;;;;8.46;100.00;99086.28;4924050;29;19941;-71
2021/12/13 14:28:10;;;;;;;;;;;;;;;8.50;100.00;99089.16;4922943;29;19935;-71
2021/12/13 14:30:40;;;;;;;;;;;;;;;8.41;100.00;99089.34;4923522;29;19934;-71
2021/12/13 14:33:20;;;;;;;;;;;;;;;8.38;100.00;99092.88;4922871;29;19927;-71
2021/12/13 14:35:53;;;;;;;;;;;;;;;8.30;100.00;99091.09;4922730;29;20220;-71
2021/12/13 14:38:20;;;;;;;;;;;;;;;8.29;100.00;99086.69;4923689;29;20236;-71
2021/12/13 14:40:52;;;;;;;;;;;;;;;8.16;100.00;99090.75;4923002;29;20210;-71
2021/12/13 14:43:21;;;;;;;;;;;;;;;8.22;100.00;99091.25;4923333;29;19935;-71
2021/12/13 14:45:49;;;;;;;;;;;;;;;8.16;100.00;99092.72;4922531;29;19935;-71
2021/12/13 14:48:21;;;;;;;;;;;;;;;8.09;100.00;99104.53;4924194;29;19934;-70
2021/12/13 14:50:50;;;;;;;;;;;;;;;8.02;100.00;99101.53;4924819;29;19934;-71
2021/12/13 14:53:25;;;;;;;;;;;;;;;8.00;100.00;99097.50;4923243;29;19935;-71
2021/12/13 14:55:53;;;;;;;;;;;;;;;7.95;100.00;99090.22;4923126;29;19927;-71
2021/12/13 14:58:30;;;;;;;;;;;;;;;7.92;100.00;99093.75;4923092;29;19942;-71
2021/12/13 15:01:01;;;;;;;;;;;;;;;7.89;100.00;99095.28;4922925;29;19927;-72
2021/12/13 15:03:31;;;;;;;;;;;;;;;7.81;100.00;99101.84;4922660;29;19935;-72
2021/12/13 15:06:02;;;;;;;;;;;;;;;7.75;100.00;99106.06;4922255;29;19938;-71
2021/12/13 15:08:31;;;;;;;;;;;;;;;7.81;100.00;99092.69;4923020;29;19935;-71
2021/12/13 15:11:03;;;;;;;;;;;;;;;7.76;100.00;99096.53;4922530;29;19938;-71
2021/12/13 15:13:31;;;;;;;;;;;;;;;7.72;100.00;99098.44;4922240;29;20198;-71
2021/12/13 15:16:02;;;;;;;;;;;;;;;7.69;100.00;99095.56;4923574;29;19927;-70
2021/12/13 15:18:41;;;;;;;;;;;;;;;7.66;100.00;99097.09;4922523;29;19935;-69
2021/12/13 15:21:12;;;;;;;;;;;;;;;7.58;100.00;99100.84;4924925;29;19935;-69
2021/12/13 15:23:40;;;;;;;;;;;;;;;7.49;100.00;99097.44;4927448;29;19942;-69
2021/12/13 15:26:12;;;;;;;;;;;;;;;7.49;100.00;99102.19;4927139;29;20216;-69
2021/12/13 15:28:53;;;;;;;;;;;;;;;7.34;100.00;99100.19;4925417;29;20194;-69
2021/12/13 15:31:34;;;;;;;;;;;;;;;7.24;100.00;99107.91;4926149;29;19934;-69
2021/12/13 15:34:03;;;;;;;;;;;;;;;7.29;100.00;99115.19;4926537;29;19927;-69
2021/12/13 15:36:33;;;;;;;;;;;;;;;7.19;100.00;99115.69;4926411;29;19935;-69
2021/12/13 15:39:05;;;;;;;;;;;;;;;7.11;100.00;99119.47;4925930;29;20015;-69
2021/12/13 15:41:33;;;;;;;;;;;;;;;7.09;100.00;99113.44;4926501;29;19934;-69
2021/12/13 15:44:02;;;;;;;;;;;;;;;7.04;100.00;99119.28;4925218;29;19935;-70
2021/12/13 15:46:32;;;;;;;;;;;;;;;6.99;100.00;99128.66;4926157;29;19942;-70
2021/12/13 15:52:11;;;;;;;;;;;;;;;6.93;100.00;99132.03;4926023;29;19935;-69
2021/12/13 15:54:47;;;;;;;;;;;;;;;6.98;100.00;99134.56;4925223;29;19927;-69
2021/12/13 15:57:17;;;;;;;;;;;;;;;7.10;100.00;99142.88;4925291;29;19957;-69
2021/12/13 15:59:47;;;;;;;;;;;;;;;6.99;100.00;99139.78;4925004;29;19927;-69
2021/12/13 16:02:18;;;;;;;;;;;;;;;6.87;100.00;99139.81;4924745;29;19938;-69
2021/12/13 16:04:51;;;;;;;;;;;;;;;6.81;100.00;99141.25;4924951;29;20123;-69
2021/12/13 16:07:20;;;;;;;;;;;;;;;6.73;100.00;99136.63;4948776;29;19943;-70
2021/12/13 16:09:50;;;;;;;;;;;;;;;6.72;100.00;99142.56;4925605;29;19942;-69
2021/12/13 16:12:23;;;;;;;;;;;;;;;6.67;100.00;99149.16;4925961;29;21440;-70
2021/12/13 16:14:58;;;;;;;;;;;;;;;6.71;100.00;99144.50;4925491;29;19935;-69
2021/12/13 16:17:30;;;;;;;;;;;;;;;6.51;100.00;99145.47;4925505;29;19935;-70
2021/12/13 16:20:11;;;;;;;;;;;;;;;6.40;100.00;99152.69;4924913;29;19927;-71
2021/12/13 16:22:45;;;;;;;;;;;;;;;6.35;100.00;99148.19;4924709;29;19969;-69
2021/12/13 16:25:22;;;;;;;;;;;;;;;6.31;100.00;99150.03;4925696;29;19942;-71